Share

Antalya, Turkey

Antalya (LTAI) Elev 174 ft | 36.90 °N, 30.80 °E | Change Station

Current weather conditions updated 25 minutes ago

Scattered Clouds
Scattered Clouds
54 °F
Feels Like 54 °F
N
5
Wind Variable Wind from North
Sunrise 6:18 AM
Sunset 7:34 PM
Moon Waning Gibbous

Today is forecast to be nearly the same temperature as yesterday.

Pressure 29.92 in
Visibility 6.2 miles
Clouds Scattered Clouds 3000 ft
Dew Point 48 °F
Humidity 82%
Rainfall 0.00 in
Snow Depth Not available.
UV 0 out of 16
Pollen Not available.
Air Quality Not available.
Flu Activity Not available.
METAR LTAI 182250Z 36004KT 9999 SCT030 12/09 Q1013 NOSIG

More Conditions Fewer Conditions

Pressure 29.92 in
Visibility 6.2 miles
Clouds Scattered Clouds 3000 ft
Dew Point 48 °F
Humidity 82%
Rainfall 0.00 in
Snow Depth Not available.
UV 0 out of 16
Pollen Not available.
Air Quality Not available.
Flu Activity Not available.
METAR LTAI 182250Z 36004KT 9999 SCT030 12/09 Q1013 NOSIG

More Conditions Fewer Conditions

10-Day Weather Forecast

Almanac

Astronomy

Apr. 19, 2014 Rise Set
Actual Time 6:18 AM EEST 7:34 PM EEST
Civil Twilight 5:51 AM EEST 8:02 PM EEST
Nautical Twilight 5:18 AM EEST 8:34 PM EEST
Astronomical Twilight 4:45 AM EEST 9:08 PM EEST
Moon 11:54 PM EEST (4/19) 9:20 AM EEST (4/19)
Length of Visible Light 14h 10m
Length of Day
13h 16m
Tomorrow will be 2m 12s longer.
Waning Gibbous, 85% of the Moon is Illuminated
Apr 18
Waning Gibbous
Apr 22
Last Quarter
Apr 29
New
May 6
First Quarter
May 14
Full

Yesterday's Extremes

Country Highs Country Lows

Community

  • Spring Chickadee
    Spring Chickadee
  • What's for Lunch?
    What's for Lunch?
  • SUNRISE THROUGH THE TREES.
    SUNRISE THROUGH THE TREES.
  • Dog Wood Blossoms
    Dog Wood Blossoms
  • Morning Light
    Morning Light

WunderPhotos

Upload Photos

1,702,535 photos uploaded!

WunderBlogs® & News

Nearby

Snow Depth

Not available.

Coastal Water Temperatures

Place Temperature
No Stations Reporting

Earthquake Activity

City Distance Mag. Time & Date
No recent earthquake activity has been reported nearby.
Minimum magnitude displayed is 2.5.

Nearby Weather Stations

There are no personal weather stations in this area.

What do you think?

We're not finished. Please let us know what you like, what you don't like, and what you are still missing.